Time;durP1;ratioP1;P1;durP2;ratioP2;P2;SDS_P1;SDS_P2;PMS_P1;PMS_P2;Temp;Humidity;BMP_temperature;BMP_pressure;BME280_temperature;BME280_humidity;BME280_pressure;Samples;Min_cycle;Max_cycle;Signal;HPM_P1;HPM_P2
2022/06/20 00:01:07;;;;;;;9.27;2.40;;;14.00;99.90;;;;;;5056063;28;20040;-83
2022/06/20 00:03:41;;;;;;;9.85;2.33;;;13.90;99.90;;;;;;5039399;28;20044;-84
2022/06/20 00:06:12;;;;;;;11.45;2.67;;;13.90;99.90;;;;;;5055628;28;20040;-83
2022/06/20 00:08:37;;;;;;;10.32;2.40;;;14.00;99.90;;;;;;5039590;28;20059;-83
2022/06/20 00:11:03;;;;;;;7.50;1.60;;;14.00;99.90;;;;;;5039339;28;20044;-83
2022/06/20 00:13:32;;;;;;;7.18;1.80;;;13.90;99.90;;;;;;5038608;28;20517;-83
2022/06/20 00:16:01;;;;;;;9.55;2.33;;;13.80;99.90;;;;;;5039841;28;20036;-83
2022/06/20 00:18:31;;;;;;;8.55;1.70;;;13.80;99.90;;;;;;5054708;28;20062;-83
2022/06/20 00:20:57;;;;;;;11.52;2.60;;;13.80;99.90;;;;;;5051029;28;20036;-83
2022/06/20 00:23:23;;;;;;;9.68;1.83;;;13.80;99.90;;;;;;5052370;28;20502;-83
2022/06/20 00:25:49;;;;;;;10.15;2.35;;;13.80;99.90;;;;;;5038864;28;20132;-83
2022/06/20 00:28:16;;;;;;;4.75;1.35;;;13.80;99.90;;;;;;5038899;28;20055;-84
2022/06/20 00:30:42;;;;;;;11.60;2.60;;;13.80;99.90;;;;;;5055122;28;20036;-84
2022/06/20 00:33:10;;;;;;;13.18;2.47;;;13.80;99.90;;;;;;5055878;28;20070;-83
2022/06/20 00:35:37;;;;;;;7.45;2.25;;;13.80;99.90;;;;;;5055465;28;20132;-84
2022/06/20 00:38:05;;;;;;;9.85;2.60;;;13.80;99.90;;;;;;5038115;28;20036;-84
2022/06/20 00:40:39;;;;;;;10.95;2.50;;;13.80;99.90;;;;;;5038656;28;20037;-84
2022/06/20 00:43:07;;;;;;;12.18;2.72;;;13.80;99.90;;;;;;5054994;28;20081;-84
2022/06/20 00:45:43;;;;;;;10.00;2.03;;;13.80;99.90;;;;;;5054994;28;20037;-84
2022/06/20 00:48:14;;;;;;;9.27;2.53;;;13.80;99.90;;;;;;5055652;28;20047;-84
2022/06/20 00:50:40;;;;;;;9.63;2.58;;;13.80;99.90;;;;;;5037581;28;20044;-84
2022/06/20 00:53:18;;;;;;;6.70;1.90;;;13.80;99.90;;;;;;5055403;28;20036;-83
2022/06/20 00:55:53;;;;;;;9.68;2.75;;;13.80;99.90;;;;;;5054969;28;20040;-83
2022/06/20 00:58:51;;;;;;;9.52;2.33;;;13.80;99.90;;;;;;5054532;28;20541;-83
2022/06/20 01:01:24;;;;;;;9.23;1.83;;;13.80;99.90;;;;;;5034927;28;20044;-83
2022/06/20 01:03:55;;;;;;;7.57;1.73;;;13.70;99.90;;;;;;5055057;28;20097;-84
2022/06/20 01:06:30;;;;;;;8.85;2.20;;;13.70;99.90;;;;;;5037947;28;20048;-83
2022/06/20 01:09:05;;;;;;;10.73;2.65;;;13.70;99.90;;;;;;5038020;28;20037;-83
2022/06/20 01:11:52;;;;;;;8.23;1.83;;;13.70;99.90;;;;;;5038737;28;20044;-83
2022/06/20 01:14:38;;;;;;;9.55;1.80;;;13.60;99.90;;;;;;5054648;28;20501;-83
2022/06/20 01:17:36;;;;;;;9.85;2.70;;;13.60;99.90;;;;;;5054647;28;20047;-83
2022/06/20 01:20:20;;;;;;;6.88;1.65;;;13.60;99.90;;;;;;5053279;28;20048;-83
2022/06/20 01:23:26;;;;;;;9.70;2.20;;;13.60;99.90;;;;;;5055129;28;20043;-83
2022/06/20 01:26:17;;;;;;;6.57;1.67;;;13.60;99.90;;;;;;5037455;28;20127;-83
2022/06/20 01:28:46;;;;;;;6.50;1.45;;;13.60;99.90;;;;;;5054694;28;20177;-83
2022/06/20 01:31:14;;;;;;;13.30;2.70;;;13.50;99.90;;;;;;5054224;28;20047;-83
2022/06/20 01:33:41;;;;;;;9.63;2.70;;;13.50;99.90;;;;;;5054344;28;20044;-83
2022/06/20 01:38:55;;;;;;;9.82;2.10;;;13.50;99.90;;;;;;5053380;28;20072;-83
2022/06/20 01:44:05;;;;;;;8.10;1.77;;;13.50;99.90;;;;;;5053622;28;20068;-83
2022/06/20 01:46:33;;;;;;;9.02;1.80;;;13.40;99.90;;;;;;5037898;28;20669;-83
2022/06/20 01:49:04;;;;;;;9.80;2.60;;;13.40;99.90;;;;;;5053915;28;20085;-83
2022/06/20 01:51:43;;;;;;;11.73;2.00;;;13.50;99.90;;;;;;5037529;28;20040;-83
2022/06/20 01:54:10;;;;;;;9.18;2.83;;;13.40;99.90;;;;;;5054547;28;20048;-84
2022/06/20 01:56:37;;;;;;;10.93;1.95;;;13.50;99.90;;;;;;5052990;28;20040;-84
2022/06/20 01:59:08;;;;;;;9.10;2.45;;;13.50;99.90;;;;;;5053075;28;20123;-84
2022/06/20 02:01:37;;;;;;;7.53;1.57;;;13.50;99.90;;;;;;5037291;28;20036;-84
2022/06/20 02:04:06;;;;;;;10.80;2.53;;;13.50;99.90;;;;;;5037246;28;20282;-84
2022/06/20 02:06:33;;;;;;;10.20;2.55;;;13.50;99.90;;;;;;5037502;28;20049;-84
2022/06/20 02:08:59;;;;;;;10.07;2.08;;;13.50;99.90;;;;;;5053054;28;20115;-85
2022/06/20 02:11:30;;;;;;;10.45;2.40;;;13.50;99.90;;;;;;5037457;28;20402;-84
2022/06/20 02:14:01;;;;;;;11.98;3.03;;;13.50;99.90;;;;;;5037356;28;20041;-84
2022/06/20 02:16:30;;;;;;;10.55;2.30;;;13.60;99.90;;;;;;5053153;28;20074;-84
2022/06/20 02:19:01;;;;;;;11.95;2.95;;;13.50;99.90;;;;;;5036855;28;20540;-84
2022/06/20 02:21:32;;;;;;;10.88;2.38;;;13.50;99.90;;;;;;5052713;28;20086;-84
2022/06/20 02:24:06;;;;;;;13.63;2.70;;;13.50;99.90;;;;;;5053962;28;20055;-84
2022/06/20 02:26:35;;;;;;;10.93;3.40;;;13.40;99.90;;;;;;5052844;28;20039;-84
2022/06/20 02:29:23;;;;;;;12.27;2.50;;;13.50;99.90;;;;;;5053404;28;20040;-84
2022/06/20 02:31:57;;;;;;;9.50;2.17;;;13.40;99.90;;;;;;5053173;28;20040;-84
2022/06/20 02:34:26;;;;;;;7.15;2.03;;;13.40;99.90;;;;;;5036467;28;20122;-84
2022/06/20 02:36:53;;;;;;;10.85;2.95;;;13.40;99.90;;;;;;5053339;28;20501;-84
2022/06/20 02:39:19;;;;;;;11.80;2.60;;;13.40;99.90;;;;;;5035210;28;20033;-84
2022/06/20 02:41:48;;;;;;;12.43;2.97;;;13.40;99.90;;;;;;5053396;28;20052;-84
2022/06/20 02:44:17;;;;;;;9.10;2.40;;;13.40;99.90;;;;;;5053392;28;20051;-84
2022/06/20 02:46:47;;;;;;;11.85;2.67;;;13.40;99.90;;;;;;5036739;28;20048;-84
2022/06/20 02:49:17;;;;;;;9.75;3.40;;;13.30;99.90;;;;;;5053044;28;20051;-84
2022/06/20 02:51:49;;;;;;;9.00;3.08;;;13.40;99.90;;;;;;5052871;28;20044;-84
2022/06/20 02:54:17;;;;;;;9.35;2.55;;;13.40;99.90;;;;;;5036939;28;20048;-84
2022/06/20 02:56:52;;;;;;;8.65;2.35;;;13.40;99.90;;;;;;5035248;28;20094;-84
2022/06/20 02:59:24;;;;;;;11.43;3.60;;;13.30;99.90;;;;;;5052598;28;20047;-84
2022/06/20 03:02:06;;;;;;;9.00;2.25;;;13.40;99.90;;;;;;5053612;28;20128;-84
2022/06/20 03:04:35;;;;;;;11.23;2.47;;;13.30;99.90;;;;;;5028368;28;20071;-84
2022/06/20 03:07:09;;;;;;;11.55;3.50;;;13.30;99.90;;;;;;5053555;28;20436;-84
2022/06/20 03:09:39;;;;;;;10.10;2.40;;;13.30;99.90;;;;;;5035297;28;20075;-84
2022/06/20 03:12:07;;;;;;;9.48;2.78;;;13.30;99.90;;;;;;5033216;28;20044;-84
2022/06/20 03:14:47;;;;;;;8.52;2.38;;;13.20;99.90;;;;;;5058058;28;20044;-84
2022/06/20 03:17:16;;;;;;;9.43;2.60;;;13.20;99.90;;;;;;5053054;28;20048;-84
2022/06/20 03:19:46;;;;;;;10.48;2.72;;;13.20;99.90;;;;;;5035382;28;20690;-84
2022/06/20 03:22:16;;;;;;;10.30;2.88;;;13.20;99.90;;;;;;5052861;28;20532;-84
2022/06/20 03:24:42;;;;;;;6.82;2.03;;;13.30;99.90;;;;;;5053251;28;20068;-84
2022/06/20 03:27:12;;;;;;;12.75;3.55;;;13.20;99.90;;;;;;5035671;28;20095;-84
2022/06/20 03:29:40;;;;;;;11.98;2.30;;;13.20;99.90;;;;;;5052628;28;20410;-84
2022/06/20 03:32:06;;;;;;;9.63;2.28;;;13.10;99.90;;;;;;5035753;28;20052;-84
2022/06/20 03:34:32;;;;;;;9.93;2.45;;;13.10;99.90;;;;;;5051679;28;20040;-84
2022/06/20 03:36:57;;;;;;;11.93;3.75;;;13.00;99.90;;;;;;5052763;28;20072;-84
2022/06/20 03:39:23;;;;;;;8.07;3.63;;;13.00;99.90;;;;;;5052275;28;20193;-84
2022/06/20 03:41:49;;;;;;;9.80;3.00;;;13.00;99.90;;;;;;5052644;28;20483;-84
2022/06/20 03:44:30;;;;;;;12.75;3.78;;;13.00;99.90;;;;;;5036535;28;20528;-84
2022/06/20 03:47:04;;;;;;;9.38;2.95;;;13.00;99.90;;;;;;5036194;28;20486;-84
2022/06/20 03:49:39;;;;;;;8.27;2.88;;;12.90;99.90;;;;;;5052517;28;20032;-84
2022/06/20 03:52:12;;;;;;;8.13;2.60;;;12.90;99.90;;;;;;5035485;28;20048;-84
2022/06/20 03:54:48;;;;;;;9.02;2.83;;;12.90;99.90;;;;;;5053052;28;20059;-84
2022/06/20 03:57:47;;;;;;;9.35;3.03;;;12.80;99.90;;;;;;5035347;28;20075;-84
2022/06/20 04:00:22;;;;;;;10.88;3.58;;;12.90;99.90;;;;;;5031217;28;20052;-84
2022/06/20 04:02:59;;;;;;;11.80;3.25;;;12.90;99.90;;;;;;5035304;28;20555;-84
2022/06/20 04:05:36;;;;;;;9.32;3.20;;;12.90;99.90;;;;;;5035811;28;20033;-84
2022/06/20 04:08:09;;;;;;;9.63;2.53;;;12.90;99.90;;;;;;5036712;28;20041;-84
2022/06/20 04:11:00;;;;;;;7.93;2.45;;;12.90;99.90;;;;;;5051977;28;20040;-84
2022/06/20 04:13:44;;;;;;;8.60;2.50;;;12.80;99.90;;;;;;5032861;28;20045;-84
2022/06/20 04:16:18;;;;;;;7.65;2.17;;;12.70;99.90;;;;;;5034545;28;20135;-84
2022/06/20 04:18:50;;;;;;;7.57;2.35;;;12.70;99.90;;;;;;5035100;28;20047;-84
2022/06/20 04:21:21;;;;;;;8.30;2.50;;;12.70;99.90;;;;;;5036136;28;20044;-84
2022/06/20 04:23:49;;;;;;;8.18;2.63;;;12.70;99.90;;;;;;5055562;28;20083;-84
2022/06/20 04:26:24;;;;;;;11.00;3.20;;;12.70;99.90;;;;;;5055915;28;20044;-84
2022/06/20 04:28:57;;;;;;;9.95;3.33;;;12.80;99.90;;;;;;5055328;28;20101;-84
2022/06/20 04:31:35;;;;;;;8.00;2.13;;;12.90;99.90;;;;;;5055896;28;20040;-84
2022/06/20 04:34:16;;;;;;;8.15;2.72;;;12.80;99.90;;;;;;5038734;28;20497;-84
2022/06/20 04:36:59;;;;;;;7.88;1.90;;;12.90;99.90;;;;;;5036160;28;20037;-84
2022/06/20 04:39:54;;;;;;;;;;;12.90;99.90;;;;;;5036747;28;20037;-84
2022/06/20 04:42:40;;;;;;;5.63;1.65;;;12.80;99.90;;;;;;5018237;28;19916;-84
2022/06/20 04:45:33;;;;;;;7.45;2.08;;;12.90;99.90;;;;;;5055371;28;20690;-84
2022/06/20 04:48:34;;;;;;;5.28;2.05;;;12.90;99.90;;;;;;5038767;28;20033;-84
2022/06/20 04:51:05;;;;;;;10.27;2.88;;;12.90;99.90;;;;;;4994563;28;20582;-84
2022/06/20 04:53:35;;;;;;;7.13;2.38;;;13.10;99.90;;;;;;4994413;28;20135;-84
2022/06/20 04:56:04;;;;;;;10.10;2.70;;;13.10;99.90;;;;;;4978702;28;20046;-84
2022/06/20 04:58:32;;;;;;;8.35;2.50;;;13.10;99.90;;;;;;4993881;28;20139;-84
2022/06/20 05:00:59;;;;;;;9.43;2.53;;;13.20;99.90;;;;;;4977323;28;20050;-84
2022/06/20 05:03:29;;;;;;;10.05;3.17;;;13.30;99.90;;;;;;4978197;28;20073;-84
2022/06/20 05:05:57;;;;;;;9.55;2.67;;;13.40;99.90;;;;;;4994596;28;20472;-84
2022/06/20 05:08:37;;;;;;;7.75;2.33;;;13.40;99.90;;;;;;4994314;28;20054;-84
2022/06/20 05:11:23;;;;;;;8.75;2.72;;;13.40;99.90;;;;;;4993222;28;20053;-84
2022/06/20 05:13:57;;;;;;;9.52;3.33;;;13.50;99.90;;;;;;4978797;28;20050;-84
2022/06/20 05:16:27;;;;;;;13.10;3.55;;;13.60;99.90;;;;;;4994137;28;20526;-83
2022/06/20 05:18:57;;;;;;;10.20;2.65;;;13.70;99.90;;;;;;4973536;28;20203;-84
2022/06/20 05:21:31;;;;;;;8.45;2.30;;;13.70;99.90;;;;;;4993389;28;20557;-83
2022/06/20 05:24:05;;;;;;;10.88;3.78;;;13.70;99.90;;;;;;4990258;28;20041;-84
2022/06/20 05:26:35;;;;;;;11.00;3.50;;;13.70;99.90;;;;;;5002723;28;20049;-84
2022/06/20 05:29:05;;;;;;;11.30;2.53;;;13.90;99.90;;;;;;5037363;28;20502;-84
2022/06/20 05:31:39;;;;;;;11.65;3.60;;;13.90;99.90;;;;;;5037644;28;20037;-84
2022/06/20 05:34:26;;;;;;;9.15;2.30;;;13.90;99.90;;;;;;5054678;28;20128;-84
2022/06/20 05:37:09;;;;;;;9.68;3.13;;;13.90;99.90;;;;;;5054477;28;20028;-84
2022/06/20 05:39:42;;;;;;;12.20;3.35;;;14.00;99.90;;;;;;5053862;28;20062;-84
2022/06/20 05:42:11;;;;;;;11.57;3.00;;;14.20;99.90;;;;;;5054151;28;20036;-84
2022/06/20 05:44:37;;;;;;;10.75;3.00;;;14.20;99.90;;;;;;5037554;28;20084;-84
2022/06/20 05:47:20;;;;;;;8.55;2.75;;;14.30;99.90;;;;;;5037361;28;20079;-84
2022/06/20 05:50:00;;;;;;;12.68;3.60;;;14.40;99.90;;;;;;5053948;28;20440;-84
2022/06/20 05:52:30;;;;;;;11.95;2.38;;;14.50;99.90;;;;;;5054539;28;20044;-84
2022/06/20 05:55:23;;;;;;;11.55;3.15;;;14.50;99.90;;;;;;5053851;28;20091;-84
2022/06/20 05:57:50;;;;;;;9.35;2.95;;;14.60;99.90;;;;;;5037686;28;20398;-85
2022/06/20 06:00:20;;;;;;;10.55;3.20;;;14.70;99.90;;;;;;5036134;28;20349;-84
2022/06/20 06:02:59;;;;;;;12.45;3.35;;;14.80;99.90;;;;;;5037725;28;20376;-84
2022/06/20 06:05:40;;;;;;;9.90;2.25;;;14.90;99.90;;;;;;5053608;28;20119;-84
2022/06/20 06:08:42;;;;;;;12.52;2.83;;;14.90;99.90;;;;;;5054475;28;20048;-85
2022/06/20 06:11:13;;;;;;;11.30;3.50;;;14.90;99.90;;;;;;5052919;28;20048;-84
2022/06/20 06:13:51;;;;;;;10.60;3.00;;;14.90;99.90;;;;;;5037422;28;20440;-85
2022/06/20 06:16:46;;;;;;;11.75;3.17;;;15.00;99.90;;;;;;5054104;28;20689;-85
2022/06/20 06:19:35;;;;;;;15.48;2.88;;;15.10;99.90;;;;;;5048568;28;20044;-85
2022/06/20 06:22:06;;;;;;;15.30;3.58;;;15.10;99.90;;;;;;5053927;28;20037;-84
2022/06/20 06:24:35;;;;;;;12.30;3.67;;;15.20;99.90;;;;;;5052902;28;20044;-84
2022/06/20 06:27:04;;;;;;;11.10;2.90;;;15.30;99.90;;;;;;5053929;28;20406;-84
2022/06/20 06:29:51;;;;;;;11.68;3.67;;;15.30;99.90;;;;;;5052669;28;20055;-84
2022/06/20 06:32:23;;;;;;;12.65;3.92;;;15.50;99.90;;;;;;5063385;28;20082;-84
2022/06/20 06:35:14;;;;;;;9.38;2.95;;;15.60;99.90;;;;;;5058630;28;20036;-84
2022/06/20 06:37:53;;;;;;;13.27;4.10;;;15.60;99.90;;;;;;5046532;28;20135;-84
2022/06/20 06:40:31;;;;;;;13.32;3.92;;;15.70;99.90;;;;;;5052673;28;20127;-84
2022/06/20 06:42:59;;;;;;;12.65;3.75;;;15.90;99.90;;;;;;5052786;28;20079;-84
2022/06/20 06:45:26;;;;;;;12.25;3.55;;;15.80;99.90;;;;;;5052354;28;20037;-84
2022/06/20 06:47:59;;;;;;;12.43;3.25;;;15.90;99.90;;;;;;5053467;28;20101;-84
2022/06/20 06:50:43;;;;;;;12.50;3.95;;;15.90;99.90;;;;;;5052934;28;20067;-84
2022/06/20 06:53:35;;;;;;;12.65;3.88;;;15.90;99.90;;;;;;5037043;28;20445;-84
2022/06/20 06:56:16;;;;;;;10.65;3.95;;;16.00;99.90;;;;;;5029186;28;20490;-84
2022/06/20 06:59:04;;;;;;;13.02;3.90;;;16.10;99.90;;;;;;5053073;28;20127;-84
2022/06/20 07:01:38;;;;;;;11.90;3.95;;;16.30;99.90;;;;;;5045621;28;20124;-84
2022/06/20 07:04:22;;;;;;;13.73;4.03;;;16.40;99.90;;;;;;5053644;28;20109;-84
2022/06/20 07:06:58;;;;;;;14.27;3.78;;;16.50;99.90;;;;;;5030222;28;20082;-84
2022/06/20 07:09:44;;;;;;;13.02;3.80;;;16.60;99.90;;;;;;5036226;28;20048;-84
2022/06/20 07:12:32;;;;;;;12.13;4.10;;;16.70;99.90;;;;;;5052157;28;20109;-84
2022/06/20 07:15:12;;;;;;;12.13;4.20;;;16.70;99.90;;;;;;5052776;28;20040;-84
2022/06/20 07:17:42;;;;;;;11.13;4.05;;;16.80;99.90;;;;;;5052092;28;20036;-84
2022/06/20 07:20:10;;;;;;;15.13;4.72;;;16.90;99.90;;;;;;5052405;28;20036;-84
2022/06/20 07:22:39;;;;;;;11.82;3.67;;;17.00;99.90;;;;;;5052496;28;20063;-84
2022/06/20 07:25:05;;;;;;;10.75;4.05;;;17.10;99.90;;;;;;5053068;28;20055;-84
2022/06/20 07:27:40;;;;;;;12.25;3.78;;;17.20;99.90;;;;;;5053290;28;20048;-84
2022/06/20 07:30:13;;;;;;;12.50;4.50;;;17.30;99.90;;;;;;5034021;28;20116;-85
2022/06/20 07:32:45;;;;;;;16.40;4.65;;;17.40;99.90;;;;;;5036012;28;20040;-84
2022/06/20 07:35:15;;;;;;;14.45;5.00;;;17.50;99.90;;;;;;5035340;28;20036;-84
2022/06/20 07:37:56;;;;;;;11.57;4.18;;;17.50;99.90;;;;;;5035872;28;20115;-84
2022/06/20 07:40:29;;;;;;;13.70;3.75;;;17.50;99.90;;;;;;5051328;28;20090;-84
2022/06/20 07:43:01;;;;;;;;;;;17.50;99.90;;;;;;5033483;28;20037;-84
2022/06/20 07:45:34;;;;;;;13.55;3.40;;;17.50;99.90;;;;;;5014919;28;20378;-84
2022/06/20 07:48:07;;;;;;;14.25;3.72;;;17.50;99.90;;;;;;5051788;28;20534;-84
2022/06/20 07:50:44;;;;;;;13.30;3.88;;;17.60;99.90;;;;;;5051790;28;20041;-84
2022/06/20 07:53:19;;;;;;;13.35;3.65;;;17.70;99.90;;;;;;5051948;28;20036;-84
2022/06/20 07:55:51;;;;;;;10.77;3.47;;;17.70;99.90;;;;;;5054237;28;20516;-84
2022/06/20 07:58:22;;;;;;;10.68;3.83;;;17.80;99.90;;;;;;5039454;28;20517;-84
2022/06/20 08:00:51;;;;;;;11.48;3.28;;;17.80;99.90;;;;;;5054703;28;20032;-84
2022/06/20 08:03:35;;;;;;;12.50;3.28;;;18.00;99.90;;;;;;5056488;28;20040;-84
2022/06/20 08:06:13;;;;;;;13.35;3.30;;;18.10;99.90;;;;;;5039478;28;20508;-84
2022/06/20 08:08:52;;;;;;;11.10;3.17;;;18.00;99.90;;;;;;5056225;28;20051;-84
2022/06/20 08:11:41;;;;;;;9.77;3.08;;;18.10;99.90;;;;;;5055447;28;20047;-84
2022/06/20 08:14:14;;;;;;;10.60;3.42;;;18.10;99.90;;;;;;5039478;28;20068;-84
2022/06/20 08:16:41;;;;;;;10.55;3.08;;;18.10;99.90;;;;;;5055500;28;20086;-84
2022/06/20 08:19:06;;;;;;;12.85;3.35;;;18.10;99.90;;;;;;5038482;28;20050;-84
2022/06/20 08:21:42;;;;;;;9.02;3.00;;;18.20;99.90;;;;;;5056126;28;20037;-85
2022/06/20 08:24:21;;;;;;;10.18;3.50;;;18.30;99.90;;;;;;5055786;28;20510;-85
2022/06/20 08:27:21;;;;;;;8.60;2.85;;;18.30;99.90;;;;;;5055640;28;20048;-85
2022/06/20 08:30:02;;;;;;;12.18;3.30;;;18.30;99.90;;;;;;4994482;28;20057;-85
2022/06/20 08:32:33;;;;;;;12.35;3.03;;;18.30;99.90;;;;;;4979278;28;20045;-85
2022/06/20 08:35:39;;;;;;;11.35;3.55;;;18.30;99.90;;;;;;4995197;28;20085;-85
2022/06/20 08:38:12;;;;;;;11.15;4.00;;;18.10;99.90;;;;;;4899041;29;20522;-85
2022/06/20 08:41:09;;;;;;;10.10;2.67;;;18.10;99.90;;;;;;4958864;28;20049;-85
2022/06/20 08:44:07;;;;;;;11.82;3.40;;;18.20;99.90;;;;;;4986102;28;20038;-85
2022/06/20 08:46:58;;;;;;;9.90;2.72;;;18.30;99.90;;;;;;5018668;28;20058;-85
2022/06/20 08:49:41;;;;;;;9.70;2.47;;;18.40;99.90;;;;;;5006598;28;20121;-85
2022/06/20 08:52:12;;;;;;;22.17;3.80;;;18.60;99.90;;;;;;4989942;28;20034;-85
2022/06/20 08:54:56;;;;;;;11.57;3.08;;;18.80;99.90;;;;;;4991186;28;20097;-85
2022/06/20 08:58:02;;;;;;;10.95;2.85;;;18.90;99.90;;;;;;4991316;28;20056;-85
2022/06/20 09:00:30;;;;;;;17.67;3.78;;;18.90;99.70;;;;;;4947368;28;20053;-85
2022/06/20 09:03:07;;;;;;;13.43;2.92;;;18.70;99.90;;;;;;4994584;28;20042;-85
2022/06/20 09:05:56;;;;;;;10.70;3.13;;;18.60;99.90;;;;;;5007923;28;20040;-85
2022/06/20 09:08:40;;;;;;;10.65;3.00;;;18.30;99.90;;;;;;5038044;28;20074;-85
2022/06/20 09:11:35;;;;;;;9.88;3.28;;;18.20;99.90;;;;;;5053497;28;20033;-85
2022/06/20 09:14:32;;;;;;;11.00;3.25;;;18.00;99.90;;;;;;5037866;28;20048;-85
2022/06/20 09:17:15;;;;;;;14.52;3.40;;;17.80;99.90;;;;;;5054319;28;20101;-85
2022/06/20 09:19:59;;;;;;;11.07;3.08;;;17.70;99.90;;;;;;5054303;28;20033;-85
2022/06/20 09:22:43;;;;;;;8.30;2.53;;;17.70;99.90;;;;;;5052259;28;20037;-85
2022/06/20 09:25:23;;;;;;;10.18;2.70;;;17.80;99.90;;;;;;5054751;28;20037;-85
2022/06/20 09:28:13;;;;;;;9.07;2.53;;;17.90;99.90;;;;;;5036579;28;20048;-84
2022/06/20 09:30:56;;;;;;;11.90;3.33;;;18.00;99.90;;;;;;5053539;28;20063;-85
2022/06/20 09:33:43;;;;;;;11.63;2.75;;;17.90;99.90;;;;;;5053775;28;20036;-85
2022/06/20 09:36:32;;;;;;;11.95;3.80;;;17.90;99.90;;;;;;5037287;28;20048;-85
2022/06/20 09:39:08;;;;;;;17.70;4.10;;;18.00;99.90;;;;;;5053733;28;20497;-85
2022/06/20 09:41:43;;;;;;;20.42;6.45;;;18.10;99.90;;;;;;5051720;28;20123;-84
2022/06/20 09:44:14;;;;;;;26.75;10.00;;;18.30;99.90;;;;;;5053450;28;20051;-84
2022/06/20 09:46:51;;;;;;;11.43;3.25;;;18.40;99.90;;;;;;5052613;28;20037;-84
2022/06/20 09:49:59;;;;;;;10.45;3.22;;;18.50;99.90;;;;;;5036687;28;20036;-84
2022/06/20 09:52:43;;;;;;;7.88;1.70;;;18.60;99.90;;;;;;5052842;28;20028;-84
2022/06/20 09:55:24;;;;;;;6.57;1.63;;;18.70;99.70;;;;;;5053788;28;20075;-84
2022/06/20 09:58:03;;;;;;;9.07;3.15;;;18.80;98.00;;;;;;5035627;28;20059;-84
2022/06/20 10:00:54;;;;;;;9.40;1.88;;;18.90;96.80;;;;;;5036381;28;20079;-85
2022/06/20 10:03:37;;;;;;;9.00;2.20;;;18.90;96.10;;;;;;5057377;28;20071;-85
2022/06/20 10:06:37;;;;;;;9.40;2.08;;;19.00;94.90;;;;;;5061203;28;20119;-83
2022/06/20 10:09:08;;;;;;;7.28;1.77;;;19.10;94.40;;;;;;5060906;28;20044;-84
2022/06/20 10:11:46;;;;;;;8.48;1.90;;;19.10;95.80;;;;;;5052860;28;20041;-84
2022/06/20 10:14:27;;;;;;;7.72;1.83;;;19.20;98.00;;;;;;5071210;28;20044;-84
2022/06/20 10:17:06;;;;;;;10.65;2.83;;;19.40;96.60;;;;;;5051946;28;20742;-84
2022/06/20 10:19:54;;;;;;;9.38;3.47;;;19.50;95.30;;;;;;5052896;28;20445;-84
2022/06/20 10:22:38;;;;;;;8.75;2.70;;;19.60;93.90;;;;;;5052308;28;20036;-84
2022/06/20 10:25:37;;;;;;;8.77;2.00;;;19.60;93.70;;;;;;5036736;28;20076;-85
2022/06/20 10:28:35;;;;;;;11.75;2.30;;;19.60;92.60;;;;;;5052746;28;20040;-84
2022/06/20 10:31:19;;;;;;;8.38;2.20;;;19.70;91.90;;;;;;5052313;28;20497;-84
2022/06/20 10:34:04;;;;;;;9.65;2.75;;;19.60;92.30;;;;;;5052990;28;20048;-84
2022/06/20 10:36:48;;;;;;;9.55;2.60;;;19.70;93.00;;;;;;5035946;28;20041;-84
2022/06/20 10:39:26;;;;;;;10.35;2.42;;;19.80;95.50;;;;;;5036057;28;20512;-84
2022/06/20 10:42:10;;;;;;;13.75;2.42;;;20.00;95.50;;;;;;5052069;28;20043;-84
2022/06/20 10:44:50;;;;;;;8.05;2.00;;;20.10;92.70;;;;;;5053257;28;20090;-84
2022/06/20 10:47:26;;;;;;;8.95;2.28;;;20.10;90.50;;;;;;5035725;28;20127;-85
2022/06/20 10:50:15;;;;;;;8.20;2.47;;;20.20;92.60;;;;;;5051710;28;20090;-84
2022/06/20 10:52:53;;;;;;;7.72;2.20;;;20.30;92.80;;;;;;5052705;28;20036;-85
2022/06/20 10:56:01;;;;;;;9.13;2.03;;;20.50;92.10;;;;;;5040670;28;20560;-85
2022/06/20 10:58:52;;;;;;;9.48;2.05;;;20.70;93.90;;;;;;5044703;28;20032;-85
2022/06/20 11:01:32;;;;;;;8.90;1.73;;;20.70;90.30;;;;;;5031340;28;20037;-85
2022/06/20 11:04:25;;;;;;;9.25;2.03;;;20.80;90.30;;;;;;5043406;28;20039;-85
2022/06/20 11:07:19;;;;;;;8.43;2.08;;;20.90;88.70;;;;;;5058455;28;20045;-84
2022/06/20 11:09:57;;;;;;;8.15;2.03;;;21.00;88.70;;;;;;5068369;28;20054;-85
2022/06/20 11:12:53;;;;;;;9.25;2.33;;;21.00;88.40;;;;;;5072687;28;20439;-84
2022/06/20 11:15:40;;;;;;;8.10;2.08;;;21.00;91.70;;;;;;5053019;28;20041;-84
2022/06/20 11:18:46;;;;;;;9.52;2.40;;;21.20;91.20;;;;;;5052623;28;20060;-85
2022/06/20 11:21:24;;;;;;;10.23;2.38;;;21.40;91.50;;;;;;5024333;28;20049;-85
2022/06/20 11:24:01;;;;;;;8.32;2.00;;;21.30;92.90;;;;;;5036246;28;20041;-85
2022/06/20 11:26:46;;;;;;;8.18;1.83;;;21.30;90.50;;;;;;5050815;28;20062;-85
2022/06/20 11:29:48;;;;;;;7.20;1.70;;;21.40;84.10;;;;;;5052889;28;20032;-85
2022/06/20 11:32:16;;;;;;;9.80;2.08;;;21.60;88.00;;;;;;5045654;28;20501;-84
2022/06/20 11:35:10;;;;;;;9.43;2.03;;;21.70;84.10;;;;;;5061737;28;20409;-85
2022/06/20 11:38:02;;;;;;;11.00;2.22;;;21.80;79.80;;;;;;5045769;28;20079;-84
2022/06/20 11:40:32;;;;;;;11.38;2.00;;;21.90;79.50;;;;;;5038515;28;20172;-84
2022/06/20 11:43:22;;;;;;;7.78;1.83;;;22.00;77.80;;;;;;5056221;28;20060;-84
2022/06/20 11:46:10;;;;;;;5.28;1.50;;;22.20;76.20;;;;;;5061393;28;20489;-85
2022/06/20 11:48:58;;;;;;;6.35;1.88;;;22.30;71.20;;;;;;5067222;28;20036;-85
2022/06/20 11:51:51;;;;;;;9.65;2.70;;;22.50;72.20;;;;;;5061098;28;20132;-84
2022/06/20 11:54:20;;;;;;;9.95;1.90;;;22.60;71.40;;;;;;5062705;28;20078;-84
2022/06/20 11:56:54;;;;;;;8.75;1.85;;;22.70;68.90;;;;;;5048283;28;20531;-84
2022/06/20 11:59:35;;;;;;;11.15;1.95;;;22.70;66.10;;;;;;5048619;28;20040;-84
2022/06/20 12:02:21;;;;;;;7.32;1.60;;;22.60;68.10;;;;;;5063157;28;20037;-85
2022/06/20 12:04:57;;;;;;;9.27;1.85;;;22.60;67.00;;;;;;5046219;28;20407;-85
2022/06/20 12:07:28;;;;;;;11.43;2.05;;;22.60;67.50;;;;;;5064019;28;20093;-85
2022/06/20 12:10:13;;;;;;;9.32;2.00;;;22.60;68.10;;;;;;5064399;28;20036;-85
2022/06/20 12:12:53;;;;;;;7.10;1.95;;;22.70;64.30;;;;;;5055596;28;20048;-84
2022/06/20 12:15:43;;;;;;;8.65;2.35;;;22.50;66.20;;;;;;5056091;28;20056;-85
2022/06/20 12:18:27;;;;;;;8.77;2.10;;;22.60;67.40;;;;;;5038500;28;20029;-85
2022/06/20 12:23:53;;;;;;;6.78;1.80;;;22.90;66.90;;;;;;5056996;28;20425;-84
2022/06/20 12:26:21;;;;;;;8.13;2.10;;;23.00;64.70;;;;;;5041716;28;20052;-84
2022/06/20 12:28:49;;;;;;;21.45;2.55;;;23.00;63.90;;;;;;5039947;28;20083;-84
2022/06/20 12:31:38;;;;;;;9.23;1.70;;;22.90;63.10;;;;;;5055295;28;20040;-84
2022/06/20 12:34:36;;;;;;;9.65;2.30;;;22.90;64.50;;;;;;5041912;28;20048;-84
2022/06/20 12:37:15;;;;;;;21.05;2.85;;;23.10;65.80;;;;;;5050488;28;20043;-84
2022/06/20 12:39:50;;;;;;;11.13;2.00;;;23.20;66.30;;;;;;5055896;28;20131;-84
2022/06/20 12:42:44;;;;;;;14.57;2.50;;;23.20;64.30;;;;;;5053341;28;20029;-84
2022/06/20 12:45:43;;;;;;;7.22;2.10;;;23.30;64.80;;;;;;5055847;28;20045;-84
2022/06/20 12:48:23;;;;;;;8.70;2.22;;;23.40;63.70;;;;;;5038460;28;20462;-84
2022/06/20 12:51:09;;;;;;;11.35;2.35;;;23.50;64.00;;;;;;5054376;28;20044;-84
2022/06/20 12:53:59;;;;;;;7.38;2.10;;;23.60;63.10;;;;;;5054866;28;20040;-84
2022/06/20 12:56:43;;;;;;;9.55;1.85;;;23.50;63.10;;;;;;5054682;28;20040;-85
2022/06/20 12:59:37;;;;;;;8.13;1.67;;;23.70;61.80;;;;;;5018056;28;20082;-84
2022/06/20 13:02:09;;;;;;;10.90;2.05;;;23.70;60.30;;;;;;5049350;28;20085;-85
2022/06/20 13:04:43;;;;;;;7.40;1.88;;;23.80;61.60;;;;;;5037904;28;20135;-85
2022/06/20 13:07:28;;;;;;;7.80;1.90;;;23.90;61.40;;;;;;5052949;28;20075;-84
2022/06/20 13:10:15;;;;;;;7.90;1.67;;;23.80;59.50;;;;;;5054016;28;20051;-85
2022/06/20 13:13:12;;;;;;;7.57;2.03;;;23.70;58.20;;;;;;5053892;28;20075;-84
2022/06/20 13:16:15;;;;;;;10.77;2.00;;;23.50;56.60;;;;;;5054830;28;20550;-84
2022/06/20 13:18:55;;;;;;;8.40;2.13;;;23.40;58.00;;;;;;4995776;28;20047;-84
2022/06/20 13:21:38;;;;;;;9.05;1.95;;;23.20;59.70;;;;;;5053370;28;20041;-84
2022/06/20 13:24:42;;;;;;;8.15;2.03;;;22.90;62.00;;;;;;5054062;28;20051;-84
2022/06/20 13:27:26;;;;;;;7.75;1.90;;;22.80;62.30;;;;;;5050240;28;20509;-85
2022/06/20 13:30:17;;;;;;;7.68;2.08;;;22.80;64.60;;;;;;5037135;28;20143;-85
2022/06/20 13:33:32;;;;;;;8.50;2.20;;;22.80;65.00;;;;;;5054023;28;20656;-85
2022/06/20 13:36:14;;;;;;;8.95;1.80;;;22.90;64.80;;;;;;5017926;28;20164;-85
2022/06/20 13:38:51;;;;;;;6.88;1.83;;;23.00;64.60;;;;;;5034036;28;20406;-85
2022/06/20 13:41:43;;;;;;;7.63;1.77;;;23.20;64.00;;;;;;5045445;28;20033;-85
2022/06/20 13:44:18;;;;;;;7.32;1.95;;;23.20;63.80;;;;;;5060923;28;20045;-84
2022/06/20 13:46:53;;;;;;;6.40;1.70;;;23.30;63.10;;;;;;5051950;28;20071;-85
2022/06/20 13:49:39;;;;;;;6.93;1.80;;;23.30;61.00;;;;;;5053263;28;20037;-84